PUL105 CYXU-CYQT
Flight info
| Callsign | PUL105 |
|---|---|
| Flight time | 2h 3m |
| Altitude | 24000 |
| Route | DUPUL NOTER4 |
| Aircraft | PC12/L-SDFGRWY/S |
Departure
| Time | 2026-04-25 01:59 |
|---|---|
| Airport | London International Airport (CYXU) |
Arrival
| Time | 2026-04-25 04:02 |
|---|---|
| Airport | Thunder Bay International Airport (CYQT) |
| Time | Latitude | Longitude | Altitude | Speed | Heading |
|---|---|---|---|---|---|
| 2026-04-25 01:38 | 43.03638 | -81.15696 | 905 ft | 0 kts | 46° |
| 2026-04-25 01:53 | 43.03643 | -81.15690 | 905 ft | 5 kts | 36° |
| 2026-04-25 01:54 | 43.03691 | -81.15713 | 904 ft | 11 kts | 295° |
| 2026-04-25 01:54 | 43.03685 | -81.15813 | 905 ft | 0 kts | 256° |
| 2026-04-25 01:54 | 43.03681 | -81.15844 | 905 ft | 9 kts | 259° |
| 2026-04-25 01:54 | 43.03669 | -81.15954 | 905 ft | 14 kts | 261° |
| 2026-04-25 01:55 | 43.03650 | -81.16087 | 905 ft | 15 kts | 258° |
| 2026-04-25 01:55 | 43.03636 | -81.16218 | 905 ft | 12 kts | 272° |
| 2026-04-25 01:55 | 43.03683 | -81.16273 | 905 ft | 0 kts | 348° |
| 2026-04-25 01:56 | 43.03684 | -81.16273 | 905 ft | 1 kts | 349° |
| 2026-04-25 01:56 | 43.03743 | -81.16291 | 905 ft | 13 kts | 349° |
| 2026-04-25 01:56 | 43.03819 | -81.16255 | 905 ft | 12 kts | 66° |
| 2026-04-25 01:57 | 43.03823 | -81.16233 | 905 ft | 0 kts | 79° |
| 2026-04-25 01:58 | 43.03823 | -81.16232 | 905 ft | 1 kts | 79° |
| 2026-04-25 01:58 | 43.03849 | -81.16052 | 903 ft | 44 kts | 79° |
| 2026-04-25 01:59 | 43.03937 | -81.15403 | 906 ft | 91 kts | 78° |
| 2026-04-25 01:59 | 43.04084 | -81.14455 | 1145 ft | 111 kts | 82° |
| 2026-04-25 01:59 | 43.04234 | -81.13298 | 1394 ft | 137 kts | 82° |
| 2026-04-25 01:59 | 43.04452 | -81.11910 | 1651 ft | 159 kts | 81° |
| 2026-04-25 02:00 | 43.04728 | -81.10377 | 1930 ft | 173 kts | 80° |
| 2026-04-25 02:00 | 43.05051 | -81.08718 | 2172 ft | 185 kts | 79° |
| 2026-04-25 02:00 | 43.05396 | -81.06995 | 2424 ft | 196 kts | 78° |
| 2026-04-25 02:00 | 43.05739 | -81.05150 | 2678 ft | 205 kts | 79° |
| 2026-04-25 02:01 | 43.06085 | -81.03209 | 2936 ft | 215 kts | 78° |
| 2026-04-25 02:01 | 43.06426 | -81.01192 | 3190 ft | 221 kts | 79° |
| 2026-04-25 02:01 | 43.06759 | -80.99112 | 3438 ft | 227 kts | 79° |
| 2026-04-25 02:01 | 43.07092 | -80.96978 | 3687 ft | 232 kts | 79° |
| 2026-04-25 02:02 | 43.07416 | -80.94803 | 3937 ft | 233 kts | 79° |
| 2026-04-25 02:02 | 43.08090 | -80.92829 | 4188 ft | 231 kts | 45° |
| 2026-04-25 02:02 | 43.09415 | -80.91721 | 4443 ft | 221 kts | 8° |
| 2026-04-25 02:02 | 43.10897 | -80.91752 | 4707 ft | 209 kts | 341° |
| 2026-04-25 02:03 | 43.12223 | -80.92466 | 4959 ft | 203 kts | 329° |
| 2026-04-25 02:03 | 43.13486 | -80.93332 | 5200 ft | 204 kts | 328° |
| 2026-04-25 02:03 | 43.14750 | -80.94214 | 5443 ft | 205 kts | 328° |
| 2026-04-25 02:03 | 43.16026 | -80.95103 | 5700 ft | 206 kts | 328° |
| 2026-04-25 02:04 | 43.17304 | -80.96000 | 5950 ft | 207 kts | 328° |
| 2026-04-25 02:04 | 43.18584 | -80.96904 | 6215 ft | 207 kts | 328° |
| 2026-04-25 02:04 | 43.19842 | -80.97791 | 6489 ft | 205 kts | 328° |
| 2026-04-25 02:04 | 43.21111 | -80.98678 | 6783 ft | 204 kts | 328° |
| 2026-04-25 02:05 | 43.22371 | -80.99557 | 7072 ft | 203 kts | 328° |
| 2026-04-25 02:05 | 43.23627 | -81.00432 | 7363 ft | 202 kts | 328° |
| 2026-04-25 02:05 | 43.24883 | -81.01306 | 7655 ft | 202 kts | 328° |
| 2026-04-25 02:05 | 43.26135 | -81.02179 | 7950 ft | 202 kts | 327° |
| 2026-04-25 02:06 | 43.27387 | -81.03044 | 8254 ft | 202 kts | 328° |
| 2026-04-25 02:06 | 43.28644 | -81.03907 | 8560 ft | 202 kts | 328° |
| 2026-04-25 02:06 | 43.29901 | -81.04775 | 8872 ft | 202 kts | 328° |
| 2026-04-25 02:06 | 43.31101 | -81.05746 | 9179 ft | 196 kts | 311° |
| 2026-04-25 02:07 | 43.31902 | -81.07227 | 9492 ft | 192 kts | 298° |
| 2026-04-25 02:07 | 43.32590 | -81.08803 | 9802 ft | 193 kts | 297° |
| 2026-04-25 02:07 | 43.33271 | -81.10392 | 10085 ft | 194 kts | 297° |
| 2026-04-25 02:07 | 43.33958 | -81.11996 | 10372 ft | 195 kts | 297° |
| 2026-04-25 02:08 | 43.34645 | -81.13604 | 10660 ft | 196 kts | 297° |
| 2026-04-25 02:08 | 43.35337 | -81.15219 | 10950 ft | 196 kts | 297° |
| 2026-04-25 02:08 | 43.36032 | -81.16837 | 11243 ft | 197 kts | 297° |
| 2026-04-25 02:08 | 43.36728 | -81.18462 | 11538 ft | 198 kts | 297° |
| 2026-04-25 02:09 | 43.37418 | -81.20074 | 11830 ft | 198 kts | 296° |
| 2026-04-25 02:09 | 43.38123 | -81.21708 | 12126 ft | 199 kts | 297° |
| 2026-04-25 02:09 | 43.38828 | -81.23347 | 12431 ft | 200 kts | 297° |
| 2026-04-25 02:09 | 43.39538 | -81.24994 | 12733 ft | 200 kts | 297° |
| 2026-04-25 02:10 | 43.40257 | -81.26638 | 13051 ft | 201 kts | 297° |
| 2026-04-25 02:10 | 43.40978 | -81.28286 | 13365 ft | 201 kts | 297° |
| 2026-04-25 02:10 | 43.41702 | -81.29940 | 13679 ft | 202 kts | 296° |
| 2026-04-25 02:10 | 43.42440 | -81.31592 | 13960 ft | 203 kts | 298° |
| 2026-04-25 02:11 | 43.43171 | -81.33259 | 14241 ft | 204 kts | 297° |
| 2026-04-25 02:11 | 43.43906 | -81.34936 | 14526 ft | 205 kts | 297° |
| 2026-04-25 02:11 | 43.44635 | -81.36605 | 14801 ft | 206 kts | 297° |
| 2026-04-25 02:11 | 43.45378 | -81.38292 | 15094 ft | 206 kts | 297° |
| 2026-04-25 02:12 | 43.46115 | -81.39980 | 15382 ft | 206 kts | 297° |
| 2026-04-25 02:12 | 43.46854 | -81.41661 | 15676 ft | 205 kts | 297° |
| 2026-04-25 02:12 | 43.47598 | -81.43348 | 15973 ft | 207 kts | 298° |
| 2026-04-25 02:12 | 43.48339 | -81.45057 | 16272 ft | 209 kts | 297° |
| 2026-04-25 02:13 | 43.49084 | -81.46784 | 16582 ft | 210 kts | 297° |
| 2026-04-25 02:13 | 43.49831 | -81.48521 | 16885 ft | 211 kts | 297° |
| 2026-04-25 02:13 | 43.50576 | -81.50279 | 17195 ft | 213 kts | 297° |
| 2026-04-25 02:13 | 43.51324 | -81.52045 | 17498 ft | 213 kts | 297° |
| 2026-04-25 02:14 | 43.52073 | -81.53806 | 17816 ft | 213 kts | 297° |
| 2026-04-25 02:14 | 43.52817 | -81.55576 | 18134 ft | 213 kts | 297° |
| 2026-04-25 02:14 | 43.53552 | -81.57328 | 18412 ft | 213 kts | 297° |
| 2026-04-25 02:14 | 43.54294 | -81.59097 | 18690 ft | 213 kts | 297° |
| 2026-04-25 02:15 | 43.55037 | -81.60865 | 18961 ft | 213 kts | 297° |
| 2026-04-25 02:15 | 43.55779 | -81.62634 | 19242 ft | 213 kts | 297° |
| 2026-04-25 02:15 | 43.56523 | -81.64400 | 19525 ft | 213 kts | 297° |
| 2026-04-25 02:15 | 43.57269 | -81.66169 | 19816 ft | 214 kts | 296° |
| 2026-04-25 02:16 | 43.58030 | -81.67934 | 20106 ft | 214 kts | 297° |
| 2026-04-25 02:16 | 43.58799 | -81.69696 | 20398 ft | 215 kts | 297° |
| 2026-04-25 02:16 | 43.59570 | -81.71460 | 20693 ft | 215 kts | 297° |
| 2026-04-25 02:16 | 43.60345 | -81.73228 | 20980 ft | 215 kts | 297° |
| 2026-04-25 02:17 | 43.61119 | -81.74990 | 21294 ft | 214 kts | 297° |
| 2026-04-25 02:17 | 43.61891 | -81.76745 | 21597 ft | 212 kts | 297° |
| 2026-04-25 02:17 | 43.62659 | -81.78486 | 21814 ft | 212 kts | 297° |
| 2026-04-25 02:17 | 43.63424 | -81.80216 | 22019 ft | 210 kts | 297° |
| 2026-04-25 02:18 | 43.64174 | -81.81908 | 22214 ft | 209 kts | 297° |
| 2026-04-25 02:18 | 43.64930 | -81.83609 | 22425 ft | 207 kts | 297° |
| 2026-04-25 02:18 | 43.65683 | -81.85298 | 22636 ft | 206 kts | 297° |
| 2026-04-25 02:18 | 43.66418 | -81.86990 | 22846 ft | 204 kts | 294° |
| 2026-04-25 02:19 | 43.67122 | -81.88679 | 23060 ft | 203 kts | 298° |
| 2026-04-25 02:19 | 43.68007 | -81.90216 | 23274 ft | 206 kts | 309° |
| 2026-04-25 02:19 | 43.69083 | -81.91542 | 23481 ft | 208 kts | 314° |
| 2026-04-25 02:19 | 43.70202 | -81.92802 | 23661 ft | 207 kts | 314° |
| 2026-04-25 02:20 | 43.71303 | -81.94078 | 23841 ft | 206 kts | 313° |
| 2026-04-25 02:20 | 43.72387 | -81.95362 | 24023 ft | 205 kts | 313° |
| 2026-04-25 02:20 | 43.73471 | -81.96646 | 24202 ft | 205 kts | 313° |
| 2026-04-25 02:20 | 43.74539 | -81.97907 | 24384 ft | 204 kts | 313° |
| 2026-04-25 02:21 | 43.75617 | -81.99179 | 24571 ft | 203 kts | 313° |
| 2026-04-25 02:21 | 43.76692 | -82.00450 | 24757 ft | 203 kts | 313° |
| 2026-04-25 02:21 | 43.77766 | -82.01720 | 24944 ft | 203 kts | 313° |
| 2026-04-25 02:21 | 43.78836 | -82.02986 | 25133 ft | 202 kts | 313° |
| 2026-04-25 02:22 | 43.79906 | -82.04252 | 25321 ft | 202 kts | 313° |
| 2026-04-25 02:22 | 43.80973 | -82.05515 | 25513 ft | 202 kts | 313° |
| 2026-04-25 02:22 | 43.82039 | -82.06778 | 25705 ft | 202 kts | 313° |
| 2026-04-25 02:22 | 43.83105 | -82.08042 | 25900 ft | 201 kts | 313° |
| 2026-04-25 02:23 | 43.84170 | -82.09305 | 26097 ft | 201 kts | 313° |
| 2026-04-25 02:23 | 43.85234 | -82.10567 | 26283 ft | 201 kts | 313° |
| 2026-04-25 02:23 | 43.86297 | -82.11829 | 26482 ft | 201 kts | 313° |
| 2026-04-25 02:23 | 43.87347 | -82.13077 | 26680 ft | 201 kts | 313° |
| 2026-04-25 02:24 | 43.88410 | -82.14340 | 26880 ft | 201 kts | 312° |
| 2026-04-25 02:24 | 43.89474 | -82.15604 | 27083 ft | 202 kts | 312° |
| 2026-04-25 02:24 | 43.90542 | -82.16874 | 27289 ft | 202 kts | 312° |
| 2026-04-25 02:24 | 43.91609 | -82.18144 | 27494 ft | 202 kts | 312° |
| 2026-04-25 02:25 | 43.92687 | -82.19430 | 27533 ft | 211 kts | 313° |
| 2026-04-25 02:25 | 43.93847 | -82.20820 | 27309 ft | 229 kts | 313° |
| 2026-04-25 02:25 | 43.95099 | -82.22310 | 27060 ft | 244 kts | 314° |
| 2026-04-25 02:25 | 43.96421 | -82.23881 | 26820 ft | 256 kts | 314° |
| 2026-04-25 02:26 | 43.97800 | -82.25521 | 26575 ft | 265 kts | 314° |
| 2026-04-25 02:26 | 43.99207 | -82.27199 | 26330 ft | 267 kts | 314° |
| 2026-04-25 02:26 | 44.00622 | -82.28887 | 26079 ft | 269 kts | 314° |
| 2026-04-25 02:26 | 44.02043 | -82.30586 | 25835 ft | 270 kts | 314° |
| 2026-04-25 02:27 | 44.03451 | -82.32271 | 25598 ft | 271 kts | 314° |
| 2026-04-25 02:27 | 44.04881 | -82.33983 | 25359 ft | 272 kts | 314° |
| 2026-04-25 02:27 | 44.06312 | -82.35696 | 25121 ft | 272 kts | 314° |
| 2026-04-25 02:27 | 44.07747 | -82.37415 | 24885 ft | 272 kts | 314° |
| 2026-04-25 02:28 | 44.09176 | -82.39130 | 24652 ft | 271 kts | 314° |
| 2026-04-25 02:28 | 44.10607 | -82.40847 | 24405 ft | 272 kts | 314° |
| 2026-04-25 02:28 | 44.12046 | -82.42578 | 24175 ft | 273 kts | 314° |
| 2026-04-25 02:28 | 44.13000 | -82.43724 | 24024 ft | 274 kts | 314° |
| 2026-04-25 02:29 | 44.14444 | -82.45460 | 23847 ft | 273 kts | 314° |
| 2026-04-25 02:29 | 44.15861 | -82.47161 | 23845 ft | 266 kts | 314° |
| 2026-04-25 02:29 | 44.17254 | -82.48840 | 23846 ft | 263 kts | 314° |
| 2026-04-25 02:29 | 44.18629 | -82.50499 | 23847 ft | 261 kts | 313° |
| 2026-04-25 02:30 | 44.20003 | -82.52156 | 23844 ft | 260 kts | 313° |
| 2026-04-25 02:30 | 44.21364 | -82.53797 | 23840 ft | 258 kts | 313° |
| 2026-04-25 02:30 | 44.22714 | -82.55426 | 23839 ft | 256 kts | 313° |
| 2026-04-25 02:30 | 44.24054 | -82.57044 | 23828 ft | 254 kts | 313° |
| 2026-04-25 02:31 | 44.25389 | -82.58659 | 23825 ft | 253 kts | 313° |
| 2026-04-25 02:31 | 44.26715 | -82.60263 | 23825 ft | 252 kts | 313° |
| 2026-04-25 02:31 | 44.28039 | -82.61865 | 23825 ft | 251 kts | 313° |
| 2026-04-25 02:31 | 44.29359 | -82.63464 | 23825 ft | 251 kts | 313° |
| 2026-04-25 02:32 | 44.30675 | -82.65058 | 23824 ft | 250 kts | 313° |
| 2026-04-25 02:32 | 44.31990 | -82.66653 | 23824 ft | 250 kts | 313° |
| 2026-04-25 02:32 | 44.33285 | -82.68224 | 23824 ft | 250 kts | 313° |
| 2026-04-25 02:32 | 44.34595 | -82.69814 | 23824 ft | 250 kts | 313° |
| 2026-04-25 02:33 | 44.35907 | -82.71408 | 23821 ft | 250 kts | 313° |
| 2026-04-25 02:33 | 44.37219 | -82.73002 | 23821 ft | 249 kts | 313° |
| 2026-04-25 02:33 | 44.38527 | -82.74593 | 23824 ft | 249 kts | 313° |
| 2026-04-25 02:33 | 44.39835 | -82.76185 | 23830 ft | 249 kts | 313° |
| 2026-04-25 02:34 | 44.41143 | -82.77777 | 23830 ft | 249 kts | 313° |
| 2026-04-25 02:34 | 44.42454 | -82.79374 | 23832 ft | 251 kts | 313° |
| 2026-04-25 02:34 | 44.43770 | -82.80981 | 23832 ft | 251 kts | 313° |
| 2026-04-25 02:34 | 44.45090 | -82.82593 | 23832 ft | 252 kts | 313° |
| 2026-04-25 02:35 | 44.46409 | -82.84203 | 23833 ft | 252 kts | 313° |
| 2026-04-25 02:35 | 44.47731 | -82.85817 | 23838 ft | 252 kts | 313° |
| 2026-04-25 02:35 | 44.49036 | -82.87411 | 23838 ft | 252 kts | 313° |
| 2026-04-25 02:35 | 44.50359 | -82.89030 | 23838 ft | 252 kts | 313° |
| 2026-04-25 02:36 | 44.51683 | -82.90649 | 23836 ft | 253 kts | 313° |
| 2026-04-25 02:36 | 44.53008 | -82.92272 | 23836 ft | 253 kts | 313° |
| 2026-04-25 02:36 | 44.54330 | -82.93893 | 23836 ft | 253 kts | 313° |
| 2026-04-25 02:36 | 44.55656 | -82.95518 | 23842 ft | 253 kts | 313° |
| 2026-04-25 02:37 | 44.56978 | -82.97140 | 23845 ft | 253 kts | 312° |
| 2026-04-25 02:37 | 44.58308 | -82.98772 | 23844 ft | 253 kts | 312° |
| 2026-04-25 02:37 | 44.59633 | -83.00399 | 23844 ft | 253 kts | 312° |
| 2026-04-25 02:37 | 44.60956 | -83.02026 | 23846 ft | 253 kts | 312° |
| 2026-04-25 02:38 | 44.62265 | -83.03635 | 23849 ft | 253 kts | 312° |
| 2026-04-25 02:38 | 44.63590 | -83.05266 | 23853 ft | 253 kts | 312° |
| 2026-04-25 02:38 | 44.64914 | -83.06896 | 23853 ft | 253 kts | 312° |
| 2026-04-25 02:38 | 44.66240 | -83.08531 | 23853 ft | 253 kts | 312° |
| 2026-04-25 02:39 | 44.67563 | -83.10161 | 23850 ft | 253 kts | 312° |
| 2026-04-25 02:39 | 44.68885 | -83.11793 | 23851 ft | 253 kts | 312° |
| 2026-04-25 02:39 | 44.70210 | -83.13428 | 23850 ft | 253 kts | 312° |
| 2026-04-25 02:39 | 44.71535 | -83.15065 | 23850 ft | 253 kts | 312° |
| 2026-04-25 02:40 | 44.72859 | -83.16701 | 23855 ft | 255 kts | 312° |
| 2026-04-25 02:40 | 44.74193 | -83.18351 | 23856 ft | 255 kts | 312° |
| 2026-04-25 02:40 | 44.75525 | -83.20001 | 23851 ft | 256 kts | 312° |
| 2026-04-25 02:40 | 44.76860 | -83.21655 | 23857 ft | 256 kts | 312° |
| 2026-04-25 02:41 | 44.78199 | -83.23313 | 23858 ft | 256 kts | 312° |
| 2026-04-25 02:41 | 44.79536 | -83.24971 | 23857 ft | 256 kts | 312° |
| 2026-04-25 02:41 | 44.80875 | -83.26630 | 23864 ft | 257 kts | 313° |
| 2026-04-25 02:41 | 44.82216 | -83.28294 | 23861 ft | 257 kts | 312° |
| 2026-04-25 02:42 | 44.83542 | -83.29942 | 23863 ft | 257 kts | 312° |
| 2026-04-25 02:42 | 44.84880 | -83.31607 | 23866 ft | 257 kts | 312° |
| 2026-04-25 02:42 | 44.86225 | -83.33279 | 23862 ft | 257 kts | 312° |
| 2026-04-25 02:42 | 44.87567 | -83.34950 | 23866 ft | 257 kts | 312° |
| 2026-04-25 02:43 | 44.88907 | -83.36619 | 23869 ft | 257 kts | 312° |
| 2026-04-25 02:43 | 44.90249 | -83.38291 | 23869 ft | 257 kts | 312° |
| 2026-04-25 02:43 | 44.91594 | -83.39967 | 23864 ft | 257 kts | 313° |
| 2026-04-25 02:43 | 44.92936 | -83.41640 | 23869 ft | 257 kts | 312° |
| 2026-04-25 02:44 | 44.94280 | -83.43318 | 23870 ft | 257 kts | 312° |
| 2026-04-25 02:44 | 44.95621 | -83.44995 | 23872 ft | 258 kts | 312° |
| 2026-04-25 02:44 | 44.96964 | -83.46675 | 23875 ft | 258 kts | 312° |
| 2026-04-25 02:44 | 44.98305 | -83.48353 | 23880 ft | 258 kts | 312° |
| 2026-04-25 02:45 | 44.99631 | -83.50012 | 23887 ft | 258 kts | 312° |
| 2026-04-25 02:45 | 45.00977 | -83.51701 | 23892 ft | 259 kts | 312° |
| 2026-04-25 02:45 | 45.02326 | -83.53393 | 23892 ft | 259 kts | 313° |
| 2026-04-25 02:45 | 45.03677 | -83.55089 | 23892 ft | 260 kts | 313° |
| 2026-04-25 02:46 | 45.05030 | -83.56788 | 23889 ft | 260 kts | 313° |
| 2026-04-25 02:46 | 45.06386 | -83.58491 | 23892 ft | 260 kts | 313° |
| 2026-04-25 02:46 | 45.07741 | -83.60194 | 23892 ft | 261 kts | 313° |
| 2026-04-25 02:46 | 45.09099 | -83.61903 | 23888 ft | 261 kts | 313° |
| 2026-04-25 02:47 | 45.10438 | -83.63588 | 23892 ft | 261 kts | 313° |
| 2026-04-25 02:47 | 45.11794 | -83.65297 | 23892 ft | 261 kts | 313° |
| 2026-04-25 02:47 | 45.13150 | -83.67005 | 23889 ft | 261 kts | 313° |
| 2026-04-25 02:47 | 45.14507 | -83.68716 | 23892 ft | 261 kts | 312° |
| 2026-04-25 02:48 | 45.15863 | -83.70429 | 23891 ft | 262 kts | 312° |
| 2026-04-25 02:48 | 45.17223 | -83.72146 | 23892 ft | 262 kts | 312° |
| 2026-04-25 02:48 | 45.18582 | -83.73863 | 23891 ft | 262 kts | 312° |
| 2026-04-25 02:48 | 45.19941 | -83.75582 | 23890 ft | 262 kts | 312° |
| 2026-04-25 02:49 | 45.21302 | -83.77304 | 23906 ft | 262 kts | 312° |
| 2026-04-25 02:49 | 45.22659 | -83.79022 | 23907 ft | 262 kts | 313° |
| 2026-04-25 02:49 | 45.24019 | -83.80742 | 23907 ft | 262 kts | 313° |
| 2026-04-25 02:49 | 45.25374 | -83.82461 | 23920 ft | 262 kts | 312° |
| 2026-04-25 02:50 | 45.26737 | -83.84193 | 23905 ft | 263 kts | 312° |
| 2026-04-25 02:50 | 45.28103 | -83.85931 | 23907 ft | 264 kts | 313° |
| 2026-04-25 02:50 | 45.29476 | -83.87675 | 23907 ft | 264 kts | 313° |
| 2026-04-25 02:50 | 45.30846 | -83.89415 | 23909 ft | 264 kts | 313° |
| 2026-04-25 02:51 | 45.32217 | -83.91159 | 23909 ft | 265 kts | 313° |
| 2026-04-25 02:51 | 45.33590 | -83.92907 | 23909 ft | 265 kts | 313° |
| 2026-04-25 02:51 | 45.34944 | -83.94632 | 23909 ft | 265 kts | 313° |
| 2026-04-25 02:51 | 45.36316 | -83.96381 | 23909 ft | 265 kts | 313° |
| 2026-04-25 02:52 | 45.37689 | -83.98133 | 23909 ft | 265 kts | 313° |
| 2026-04-25 02:52 | 45.39061 | -83.99885 | 23909 ft | 265 kts | 313° |
| 2026-04-25 02:52 | 45.40433 | -84.01638 | 23910 ft | 265 kts | 313° |
| 2026-04-25 02:52 | 45.41806 | -84.03393 | 23910 ft | 265 kts | 313° |
| 2026-04-25 02:53 | 45.43181 | -84.05151 | 23908 ft | 266 kts | 313° |
| 2026-04-25 02:53 | 45.44560 | -84.06914 | 23909 ft | 267 kts | 313° |
| 2026-04-25 02:53 | 45.45941 | -84.08682 | 23909 ft | 267 kts | 313° |
| 2026-04-25 02:53 | 45.47322 | -84.10453 | 23912 ft | 267 kts | 313° |
| 2026-04-25 02:54 | 45.48704 | -84.12227 | 23914 ft | 267 kts | 313° |
| 2026-04-25 02:54 | 45.50071 | -84.13981 | 23915 ft | 268 kts | 313° |
| 2026-04-25 02:54 | 45.51457 | -84.15761 | 23939 ft | 268 kts | 311° |
| 2026-04-25 02:54 | 45.52843 | -84.17542 | 23916 ft | 268 kts | 312° |
| 2026-04-25 02:55 | 45.54226 | -84.19326 | 23914 ft | 268 kts | 312° |
| 2026-04-25 02:55 | 45.55608 | -84.21106 | 23919 ft | 268 kts | 312° |
| 2026-04-25 02:55 | 45.56992 | -84.22888 | 23920 ft | 267 kts | 312° |
| 2026-04-25 02:55 | 45.58373 | -84.24667 | 23921 ft | 267 kts | 312° |
| 2026-04-25 02:56 | 45.59754 | -84.26448 | 23919 ft | 267 kts | 312° |
| 2026-04-25 02:56 | 45.61133 | -84.28228 | 23919 ft | 267 kts | 312° |
| 2026-04-25 02:56 | 45.62512 | -84.30010 | 23919 ft | 267 kts | 312° |
| 2026-04-25 02:56 | 45.63889 | -84.31789 | 23923 ft | 267 kts | 312° |
| 2026-04-25 02:57 | 45.65269 | -84.33573 | 23920 ft | 268 kts | 313° |
| 2026-04-25 02:57 | 45.66653 | -84.35363 | 23921 ft | 268 kts | 313° |
| 2026-04-25 02:57 | 45.68035 | -84.37153 | 23926 ft | 269 kts | 312° |
| 2026-04-25 02:57 | 45.69423 | -84.38952 | 23925 ft | 269 kts | 312° |
| 2026-04-25 02:58 | 45.70791 | -84.40727 | 23927 ft | 269 kts | 312° |
| 2026-04-25 02:58 | 45.72177 | -84.42525 | 23929 ft | 269 kts | 312° |
| 2026-04-25 02:58 | 45.73564 | -84.44327 | 23928 ft | 269 kts | 312° |
| 2026-04-25 02:58 | 45.74951 | -84.46130 | 23928 ft | 269 kts | 312° |
| 2026-04-25 02:59 | 45.76339 | -84.47935 | 23927 ft | 269 kts | 312° |
| 2026-04-25 02:59 | 45.77729 | -84.49744 | 23948 ft | 269 kts | 311° |
| 2026-04-25 02:59 | 45.79117 | -84.51550 | 23927 ft | 269 kts | 311° |
| 2026-04-25 02:59 | 45.80502 | -84.53361 | 23924 ft | 269 kts | 311° |
| 2026-04-25 03:00 | 45.81881 | -84.55161 | 23922 ft | 268 kts | 311° |
| 2026-04-25 03:00 | 45.83257 | -84.56956 | 23923 ft | 267 kts | 311° |
| 2026-04-25 03:00 | 45.84632 | -84.58752 | 23922 ft | 267 kts | 312° |
| 2026-04-25 03:00 | 45.86009 | -84.60551 | 23919 ft | 268 kts | 312° |
| 2026-04-25 03:01 | 45.87387 | -84.62356 | 23924 ft | 269 kts | 312° |
| 2026-04-25 03:01 | 45.88770 | -84.64166 | 23924 ft | 269 kts | 312° |
| 2026-04-25 03:01 | 45.90157 | -84.65983 | 23933 ft | 269 kts | 312° |
| 2026-04-25 03:01 | 45.91524 | -84.67774 | 23934 ft | 270 kts | 312° |
| 2026-04-25 03:02 | 45.92911 | -84.69593 | 23934 ft | 270 kts | 312° |
| 2026-04-25 03:02 | 45.94299 | -84.71415 | 23934 ft | 270 kts | 312° |
| 2026-04-25 03:02 | 45.95686 | -84.73237 | 23935 ft | 270 kts | 312° |
| 2026-04-25 03:02 | 45.97073 | -84.75060 | 23932 ft | 270 kts | 312° |
| 2026-04-25 03:03 | 45.98405 | -84.76815 | 23959 ft | 268 kts | 313° |
| 2026-04-25 03:03 | 45.99789 | -84.78631 | 23938 ft | 269 kts | 312° |
| 2026-04-25 03:03 | 46.01176 | -84.80451 | 23939 ft | 270 kts | 312° |
| 2026-04-25 03:03 | 46.02560 | -84.82274 | 23941 ft | 270 kts | 312° |
| 2026-04-25 03:04 | 46.03943 | -84.84102 | 23938 ft | 270 kts | 312° |
| 2026-04-25 03:04 | 46.05327 | -84.85927 | 23941 ft | 270 kts | 311° |
| 2026-04-25 03:04 | 46.06709 | -84.87755 | 23948 ft | 270 kts | 311° |
| 2026-04-25 03:05 | 46.09474 | -84.91413 | 23952 ft | 270 kts | 311° |
| 2026-04-25 03:05 | 46.10857 | -84.93242 | 23954 ft | 270 kts | 311° |
| 2026-04-25 03:05 | 46.12239 | -84.95073 | 23955 ft | 270 kts | 311° |
| 2026-04-25 03:05 | 46.13621 | -84.96906 | 23956 ft | 270 kts | 311° |
| 2026-04-25 03:06 | 46.15001 | -84.98737 | 23959 ft | 270 kts | 311° |
| 2026-04-25 03:06 | 46.16383 | -85.00572 | 23959 ft | 270 kts | 311° |
| 2026-04-25 03:06 | 46.17762 | -85.02404 | 23959 ft | 270 kts | 311° |
| 2026-04-25 03:06 | 46.19123 | -85.04213 | 23959 ft | 270 kts | 311° |
| 2026-04-25 03:07 | 46.20503 | -85.06050 | 23957 ft | 270 kts | 311° |
| 2026-04-25 03:07 | 46.21884 | -85.07888 | 23957 ft | 270 kts | 311° |
| 2026-04-25 03:07 | 46.23263 | -85.09725 | 23959 ft | 270 kts | 311° |
| 2026-04-25 03:07 | 46.24643 | -85.11564 | 23959 ft | 269 kts | 311° |
| 2026-04-25 03:08 | 46.26019 | -85.13400 | 23959 ft | 269 kts | 311° |
| 2026-04-25 03:08 | 46.27397 | -85.15241 | 23965 ft | 270 kts | 311° |
| 2026-04-25 03:08 | 46.28779 | -85.17089 | 23963 ft | 271 kts | 311° |
| 2026-04-25 03:08 | 46.30166 | -85.18943 | 23967 ft | 271 kts | 311° |
| 2026-04-25 03:09 | 46.31554 | -85.20800 | 23968 ft | 272 kts | 310° |
| 2026-04-25 03:09 | 46.32942 | -85.22660 | 23967 ft | 272 kts | 310° |
| 2026-04-25 03:09 | 46.34312 | -85.24497 | 23968 ft | 271 kts | 310° |
| 2026-04-25 03:09 | 46.35695 | -85.26351 | 23964 ft | 271 kts | 310° |
| 2026-04-25 03:10 | 46.37075 | -85.28202 | 23968 ft | 271 kts | 310° |
| 2026-04-25 03:10 | 46.38455 | -85.30056 | 23967 ft | 270 kts | 310° |
| 2026-04-25 03:10 | 46.39835 | -85.31910 | 23965 ft | 270 kts | 310° |
| 2026-04-25 03:10 | 46.41213 | -85.33764 | 23971 ft | 270 kts | 310° |
| 2026-04-25 03:11 | 46.42590 | -85.35617 | 23977 ft | 270 kts | 310° |
| 2026-04-25 03:11 | 46.43968 | -85.37473 | 23975 ft | 270 kts | 310° |
| 2026-04-25 03:11 | 46.45345 | -85.39329 | 23976 ft | 270 kts | 310° |
| 2026-04-25 03:11 | 46.46721 | -85.41185 | 23975 ft | 270 kts | 310° |
| 2026-04-25 03:12 | 46.48099 | -85.43046 | 23987 ft | 270 kts | 310° |
| 2026-04-25 03:12 | 46.49477 | -85.44907 | 23981 ft | 271 kts | 310° |
| 2026-04-25 03:12 | 46.50857 | -85.46772 | 23982 ft | 271 kts | 310° |
| 2026-04-25 03:12 | 46.52238 | -85.48640 | 23985 ft | 272 kts | 310° |
| 2026-04-25 03:13 | 46.53622 | -85.50513 | 23985 ft | 272 kts | 310° |
| 2026-04-25 03:13 | 46.54992 | -85.52369 | 23985 ft | 272 kts | 310° |
| 2026-04-25 03:13 | 46.56377 | -85.54246 | 23986 ft | 272 kts | 310° |
| 2026-04-25 03:13 | 46.57761 | -85.56124 | 23988 ft | 272 kts | 310° |
| 2026-04-25 03:14 | 46.59142 | -85.57999 | 23985 ft | 272 kts | 310° |
| 2026-04-25 03:14 | 46.60526 | -85.59879 | 23985 ft | 272 kts | 310° |
| 2026-04-25 03:14 | 46.61907 | -85.61758 | 23986 ft | 272 kts | 310° |
| 2026-04-25 03:14 | 46.63291 | -85.63641 | 23986 ft | 272 kts | 310° |
| 2026-04-25 03:15 | 46.64673 | -85.65521 | 23991 ft | 272 kts | 310° |
| 2026-04-25 03:15 | 46.66051 | -85.67400 | 23990 ft | 272 kts | 310° |
| 2026-04-25 03:15 | 46.67430 | -85.69280 | 23991 ft | 272 kts | 310° |
| 2026-04-25 03:15 | 46.68810 | -85.71163 | 23991 ft | 272 kts | 310° |
| 2026-04-25 03:16 | 46.69721 | -85.72407 | 23989 ft | 271 kts | 310° |
| 2026-04-25 03:16 | 46.71100 | -85.74291 | 23991 ft | 271 kts | 310° |
| 2026-04-25 03:16 | 46.72476 | -85.76173 | 23990 ft | 271 kts | 310° |
| 2026-04-25 03:16 | 46.74300 | -85.78668 | 23994 ft | 271 kts | 310° |
| 2026-04-25 03:17 | 46.75675 | -85.80552 | 23991 ft | 271 kts | 310° |
| 2026-04-25 03:17 | 46.76590 | -85.81806 | 23991 ft | 271 kts | 310° |
| 2026-04-25 03:17 | 46.77963 | -85.83689 | 23991 ft | 271 kts | 310° |
| 2026-04-25 03:17 | 46.79340 | -85.85578 | 23991 ft | 271 kts | 310° |
| 2026-04-25 03:18 | 46.80718 | -85.87471 | 23991 ft | 271 kts | 310° |
| 2026-04-25 03:18 | 46.82090 | -85.89357 | 23991 ft | 271 kts | 310° |
| 2026-04-25 03:18 | 46.83468 | -85.91252 | 23997 ft | 271 kts | 310° |
| 2026-04-25 03:18 | 46.84839 | -85.93138 | 23990 ft | 270 kts | 309° |
| 2026-04-25 03:19 | 46.86207 | -85.95021 | 23993 ft | 269 kts | 309° |
| 2026-04-25 03:19 | 46.87546 | -85.96867 | 23992 ft | 267 kts | 309° |
| 2026-04-25 03:19 | 46.88913 | -85.98753 | 23992 ft | 266 kts | 309° |
| 2026-04-25 03:19 | 46.90258 | -86.00610 | 23995 ft | 266 kts | 309° |
| 2026-04-25 03:20 | 46.91583 | -86.02441 | 23992 ft | 266 kts | 309° |
| 2026-04-25 03:20 | 46.92926 | -86.04298 | 23992 ft | 266 kts | 309° |
| 2026-04-25 03:20 | 46.94269 | -86.06156 | 23992 ft | 266 kts | 309° |
| 2026-04-25 03:20 | 46.95612 | -86.08016 | 23989 ft | 266 kts | 309° |
| 2026-04-25 03:21 | 46.96952 | -86.09878 | 23986 ft | 265 kts | 309° |
| 2026-04-25 03:21 | 46.98284 | -86.11743 | 23984 ft | 264 kts | 307° |
| 2026-04-25 03:21 | 46.99618 | -86.13576 | 23984 ft | 262 kts | 318° |
| 2026-04-25 03:21 | 47.00981 | -86.15329 | 23969 ft | 258 kts | 308° |
| 2026-04-25 03:22 | 47.02248 | -86.17190 | 23980 ft | 257 kts | 306° |
| 2026-04-25 03:22 | 47.03524 | -86.19046 | 23979 ft | 260 kts | 309° |
| 2026-04-25 03:22 | 47.04851 | -86.20859 | 23980 ft | 261 kts | 310° |
| 2026-04-25 03:22 | 47.06173 | -86.22668 | 23982 ft | 260 kts | 309° |
| 2026-04-25 03:23 | 47.07468 | -86.24489 | 23985 ft | 261 kts | 308° |
| 2026-04-25 03:23 | 47.08785 | -86.26337 | 23985 ft | 262 kts | 309° |
| 2026-04-25 03:23 | 47.10110 | -86.28183 | 23985 ft | 263 kts | 309° |
| 2026-04-25 03:23 | 47.11436 | -86.30029 | 24006 ft | 263 kts | 308° |
| 2026-04-25 03:24 | 47.12761 | -86.31879 | 23990 ft | 262 kts | 309° |
| 2026-04-25 03:24 | 47.14076 | -86.33718 | 23989 ft | 261 kts | 308° |
| 2026-04-25 03:24 | 47.15386 | -86.35553 | 23989 ft | 260 kts | 308° |
| 2026-04-25 03:24 | 47.16691 | -86.37381 | 23986 ft | 259 kts | 308° |
| 2026-04-25 03:25 | 47.17995 | -86.39207 | 23985 ft | 259 kts | 308° |
| 2026-04-25 03:25 | 47.19296 | -86.41032 | 23985 ft | 258 kts | 308° |
| 2026-04-25 03:25 | 47.20578 | -86.42831 | 23989 ft | 258 kts | 308° |
| 2026-04-25 03:25 | 47.21875 | -86.44653 | 23985 ft | 258 kts | 308° |
| 2026-04-25 03:26 | 47.23169 | -86.46471 | 23991 ft | 257 kts | 308° |
| 2026-04-25 03:26 | 47.24462 | -86.48290 | 23990 ft | 257 kts | 308° |
| 2026-04-25 03:26 | 47.25754 | -86.50108 | 23990 ft | 257 kts | 308° |
| 2026-04-25 03:26 | 47.27048 | -86.51931 | 23982 ft | 257 kts | 308° |
| 2026-04-25 03:27 | 47.28343 | -86.53756 | 23982 ft | 257 kts | 308° |
| 2026-04-25 03:27 | 47.29633 | -86.55575 | 23982 ft | 257 kts | 308° |
| 2026-04-25 03:27 | 47.30924 | -86.57398 | 23982 ft | 257 kts | 308° |
| 2026-04-25 03:27 | 47.32212 | -86.59216 | 23986 ft | 257 kts | 308° |
| 2026-04-25 03:28 | 47.33500 | -86.61037 | 23982 ft | 257 kts | 308° |
| 2026-04-25 03:28 | 47.34789 | -86.62860 | 23981 ft | 257 kts | 308° |
| 2026-04-25 03:28 | 47.36081 | -86.64689 | 23981 ft | 258 kts | 308° |
| 2026-04-25 03:28 | 47.37376 | -86.66522 | 23987 ft | 258 kts | 308° |
| 2026-04-25 03:29 | 47.38672 | -86.68360 | 23995 ft | 258 kts | 309° |
| 2026-04-25 03:29 | 47.39966 | -86.70195 | 23987 ft | 258 kts | 309° |
| 2026-04-25 03:29 | 47.41241 | -86.72003 | 23986 ft | 257 kts | 309° |
| 2026-04-25 03:29 | 47.42526 | -86.73828 | 23981 ft | 256 kts | 309° |
| 2026-04-25 03:30 | 47.43811 | -86.75655 | 23981 ft | 256 kts | 308° |
| 2026-04-25 03:30 | 47.45093 | -86.77479 | 23980 ft | 255 kts | 308° |
| 2026-04-25 03:30 | 47.46369 | -86.79296 | 23980 ft | 255 kts | 308° |
| 2026-04-25 03:30 | 47.47645 | -86.81113 | 23980 ft | 255 kts | 308° |
| 2026-04-25 03:31 | 47.48918 | -86.82928 | 23983 ft | 254 kts | 308° |
| 2026-04-25 03:31 | 47.50191 | -86.84744 | 23983 ft | 254 kts | 308° |
| 2026-04-25 03:31 | 47.51463 | -86.86561 | 23983 ft | 254 kts | 308° |
| 2026-04-25 03:31 | 47.52737 | -86.88381 | 23983 ft | 254 kts | 308° |
| 2026-04-25 03:32 | 47.54007 | -86.90195 | 23980 ft | 254 kts | 308° |
| 2026-04-25 03:32 | 47.55280 | -86.92017 | 23987 ft | 254 kts | 309° |
| 2026-04-25 03:32 | 47.56553 | -86.93839 | 23982 ft | 254 kts | 309° |
| 2026-04-25 03:32 | 47.57810 | -86.95640 | 23982 ft | 255 kts | 309° |
| 2026-04-25 03:33 | 47.59084 | -86.97466 | 23982 ft | 255 kts | 309° |
| 2026-04-25 03:33 | 47.60357 | -86.99293 | 23982 ft | 255 kts | 309° |
| 2026-04-25 03:33 | 47.61630 | -87.01121 | 23982 ft | 255 kts | 308° |
| 2026-04-25 03:33 | 47.62903 | -87.02949 | 23982 ft | 255 kts | 308° |
| 2026-04-25 03:34 | 47.64176 | -87.04780 | 23982 ft | 255 kts | 308° |
| 2026-04-25 03:34 | 47.65450 | -87.06614 | 24002 ft | 255 kts | 309° |
| 2026-04-25 03:34 | 47.66728 | -87.08454 | 23981 ft | 255 kts | 308° |
| 2026-04-25 03:34 | 47.67780 | -87.10497 | 23983 ft | 245 kts | 292° |
| 2026-04-25 03:35 | 47.68585 | -87.12722 | 23983 ft | 245 kts | 291° |
| 2026-04-25 03:35 | 47.69384 | -87.14919 | 23978 ft | 245 kts | 291° |
| 2026-04-25 03:35 | 47.70197 | -87.17141 | 23978 ft | 245 kts | 291° |
| 2026-04-25 03:35 | 47.71009 | -87.19365 | 23978 ft | 245 kts | 291° |
| 2026-04-25 03:36 | 47.71820 | -87.21592 | 23976 ft | 245 kts | 291° |
| 2026-04-25 03:36 | 47.72631 | -87.23823 | 23977 ft | 245 kts | 291° |
| 2026-04-25 03:36 | 47.73441 | -87.26051 | 23977 ft | 245 kts | 291° |
| 2026-04-25 03:36 | 47.74251 | -87.28282 | 23977 ft | 245 kts | 291° |
| 2026-04-25 03:37 | 47.75061 | -87.30513 | 23974 ft | 245 kts | 291° |
| 2026-04-25 03:37 | 47.75869 | -87.32743 | 23974 ft | 245 kts | 291° |
| 2026-04-25 03:37 | 47.76677 | -87.34973 | 23974 ft | 245 kts | 291° |
| 2026-04-25 03:37 | 47.77485 | -87.37205 | 23979 ft | 245 kts | 291° |
| 2026-04-25 03:38 | 47.78293 | -87.39439 | 23976 ft | 246 kts | 291° |
| 2026-04-25 03:38 | 47.79104 | -87.41683 | 23977 ft | 246 kts | 291° |
| 2026-04-25 03:38 | 47.79913 | -87.43923 | 23977 ft | 246 kts | 291° |
| 2026-04-25 03:38 | 47.80723 | -87.46167 | 23970 ft | 245 kts | 291° |
| 2026-04-25 03:39 | 47.81530 | -87.48401 | 23978 ft | 243 kts | 291° |
| 2026-04-25 03:39 | 47.82314 | -87.50579 | 23977 ft | 241 kts | 291° |
| 2026-04-25 03:39 | 47.83104 | -87.52774 | 23977 ft | 239 kts | 291° |
| 2026-04-25 03:39 | 47.83886 | -87.54952 | 23976 ft | 238 kts | 291° |
| 2026-04-25 03:40 | 47.84666 | -87.57124 | 23978 ft | 237 kts | 291° |
| 2026-04-25 03:40 | 47.85442 | -87.59285 | 23978 ft | 236 kts | 291° |
| 2026-04-25 03:40 | 47.86216 | -87.61444 | 23983 ft | 236 kts | 291° |
| 2026-04-25 03:40 | 47.86988 | -87.63598 | 23989 ft | 236 kts | 291° |
| 2026-04-25 03:41 | 47.87758 | -87.65749 | 23986 ft | 235 kts | 291° |
| 2026-04-25 03:41 | 47.88529 | -87.67904 | 23986 ft | 235 kts | 291° |
| 2026-04-25 03:41 | 47.89294 | -87.70049 | 23796 ft | 243 kts | 291° |
| 2026-04-25 03:41 | 47.90114 | -87.72353 | 23485 ft | 253 kts | 291° |
| 2026-04-25 03:42 | 47.90951 | -87.74692 | 23136 ft | 259 kts | 292° |
| 2026-04-25 03:42 | 47.91804 | -87.77076 | 22782 ft | 262 kts | 292° |
| 2026-04-25 03:42 | 47.92651 | -87.79454 | 22437 ft | 264 kts | 292° |
| 2026-04-25 03:42 | 47.93511 | -87.81871 | 22089 ft | 264 kts | 292° |
| 2026-04-25 03:43 | 47.94373 | -87.84294 | 21717 ft | 264 kts | 292° |
| 2026-04-25 03:43 | 47.95233 | -87.86714 | 21355 ft | 264 kts | 292° |
| 2026-04-25 03:43 | 47.96090 | -87.89128 | 21021 ft | 263 kts | 290° |
| 2026-04-25 03:43 | 47.96944 | -87.91537 | 20665 ft | 262 kts | 291° |
| 2026-04-25 03:44 | 47.97797 | -87.93944 | 20313 ft | 262 kts | 290° |
| 2026-04-25 03:44 | 47.98646 | -87.96341 | 19966 ft | 260 kts | 290° |
| 2026-04-25 03:44 | 47.99490 | -87.98729 | 19625 ft | 259 kts | 290° |
| 2026-04-25 03:44 | 48.00333 | -88.01116 | 19295 ft | 259 kts | 290° |
| 2026-04-25 03:45 | 48.01175 | -88.03502 | 18959 ft | 259 kts | 290° |
| 2026-04-25 03:45 | 48.02013 | -88.05878 | 18627 ft | 258 kts | 290° |
| 2026-04-25 03:45 | 48.02848 | -88.08247 | 18295 ft | 256 kts | 290° |
| 2026-04-25 03:45 | 48.03675 | -88.10594 | 17922 ft | 254 kts | 290° |
| 2026-04-25 03:46 | 48.04494 | -88.12922 | 17544 ft | 252 kts | 290° |
| 2026-04-25 03:46 | 48.05306 | -88.15237 | 17177 ft | 251 kts | 291° |
| 2026-04-25 03:46 | 48.06116 | -88.17544 | 16812 ft | 250 kts | 291° |
| 2026-04-25 03:46 | 48.06913 | -88.19817 | 16454 ft | 249 kts | 291° |
| 2026-04-25 03:47 | 48.07715 | -88.22107 | 16097 ft | 248 kts | 291° |
| 2026-04-25 03:47 | 48.08515 | -88.24392 | 15745 ft | 247 kts | 291° |
| 2026-04-25 03:47 | 48.09311 | -88.26668 | 15395 ft | 246 kts | 291° |
| 2026-04-25 03:47 | 48.10104 | -88.28935 | 15050 ft | 245 kts | 291° |
| 2026-04-25 03:48 | 48.10892 | -88.31190 | 14735 ft | 244 kts | 291° |
| 2026-04-25 03:48 | 48.11676 | -88.33438 | 14397 ft | 243 kts | 291° |
| 2026-04-25 03:48 | 48.12455 | -88.35672 | 14062 ft | 242 kts | 291° |
| 2026-04-25 03:48 | 48.13229 | -88.37896 | 13722 ft | 240 kts | 291° |
| 2026-04-25 03:49 | 48.14001 | -88.40115 | 13346 ft | 239 kts | 291° |
| 2026-04-25 03:49 | 48.14767 | -88.42319 | 12976 ft | 239 kts | 291° |
| 2026-04-25 03:49 | 48.15520 | -88.44484 | 12512 ft | 237 kts | 292° |
| 2026-04-25 03:49 | 48.16281 | -88.46674 | 11999 ft | 237 kts | 292° |
| 2026-04-25 03:50 | 48.17041 | -88.48866 | 11494 ft | 237 kts | 292° |
| 2026-04-25 03:50 | 48.17800 | -88.51057 | 10997 ft | 237 kts | 293° |
| 2026-04-25 03:50 | 48.18559 | -88.53249 | 10508 ft | 237 kts | 293° |
| 2026-04-25 03:50 | 48.19317 | -88.55441 | 10025 ft | 237 kts | 294° |
| 2026-04-25 03:51 | 48.20065 | -88.57636 | 9505 ft | 236 kts | 293° |
| 2026-04-25 03:51 | 48.20805 | -88.59831 | 8984 ft | 236 kts | 294° |
| 2026-04-25 03:51 | 48.21552 | -88.62028 | 8471 ft | 236 kts | 294° |
| 2026-04-25 03:51 | 48.22297 | -88.64210 | 8052 ft | 233 kts | 295° |
| 2026-04-25 03:52 | 48.23029 | -88.66360 | 7678 ft | 230 kts | 295° |
| 2026-04-25 03:52 | 48.23754 | -88.68492 | 7305 ft | 228 kts | 295° |
| 2026-04-25 03:52 | 48.24475 | -88.70615 | 6925 ft | 227 kts | 295° |
| 2026-04-25 03:52 | 48.25188 | -88.72717 | 6568 ft | 225 kts | 296° |
| 2026-04-25 03:53 | 48.25894 | -88.74798 | 6194 ft | 222 kts | 296° |
| 2026-04-25 03:53 | 48.26586 | -88.76839 | 5808 ft | 217 kts | 296° |
| 2026-04-25 03:53 | 48.27257 | -88.78818 | 5425 ft | 214 kts | 296° |
| 2026-04-25 03:53 | 48.27928 | -88.80802 | 5039 ft | 212 kts | 296° |
| 2026-04-25 03:54 | 48.28594 | -88.82772 | 4662 ft | 211 kts | 296° |
| 2026-04-25 03:54 | 48.29255 | -88.84732 | 4266 ft | 210 kts | 296° |
| 2026-04-25 03:54 | 48.29909 | -88.86669 | 3994 ft | 203 kts | 297° |
| 2026-04-25 03:54 | 48.30522 | -88.88486 | 3995 ft | 187 kts | 297° |
| 2026-04-25 03:55 | 48.31104 | -88.90213 | 3996 ft | 183 kts | 297° |
| 2026-04-25 03:55 | 48.31679 | -88.91925 | 3997 ft | 187 kts | 297° |
| 2026-04-25 03:55 | 48.32279 | -88.93707 | 4000 ft | 196 kts | 297° |
| 2026-04-25 03:55 | 48.32894 | -88.95534 | 4000 ft | 200 kts | 297° |
| 2026-04-25 03:56 | 48.33525 | -88.97409 | 3993 ft | 202 kts | 297° |
| 2026-04-25 03:56 | 48.34159 | -88.99297 | 3994 ft | 203 kts | 297° |
| 2026-04-25 03:56 | 48.34807 | -89.01189 | 3991 ft | 203 kts | 301° |
| 2026-04-25 03:56 | 48.35750 | -89.02757 | 3986 ft | 204 kts | 323° |
| 2026-04-25 03:57 | 48.37026 | -89.03724 | 3849 ft | 210 kts | 340° |
| 2026-04-25 03:57 | 48.38425 | -89.04442 | 3672 ft | 214 kts | 341° |
| 2026-04-25 03:57 | 48.39812 | -89.05218 | 3499 ft | 212 kts | 334° |
| 2026-04-25 03:57 | 48.40973 | -89.06558 | 3406 ft | 209 kts | 313° |
| 2026-04-25 03:58 | 48.41744 | -89.08371 | 3314 ft | 207 kts | 294° |
| 2026-04-25 03:58 | 48.42056 | -89.10472 | 3056 ft | 206 kts | 275° |
| 2026-04-25 03:58 | 48.41880 | -89.12604 | 2682 ft | 210 kts | 255° |
| 2026-04-25 03:58 | 48.41391 | -89.14649 | 2366 ft | 207 kts | 254° |
| 2026-04-25 03:59 | 48.40921 | -89.16675 | 1989 ft | 201 kts | 255° |
| 2026-04-25 03:59 | 48.40485 | -89.18565 | 1573 ft | 183 kts | 253° |
| 2026-04-25 03:59 | 48.40092 | -89.20249 | 1306 ft | 157 kts | 252° |
| 2026-04-25 03:59 | 48.39768 | -89.21628 | 1289 ft | 124 kts | 253° |
| 2026-04-25 04:00 | 48.39503 | -89.22755 | 1289 ft | 105 kts | 253° |
| 2026-04-25 04:00 | 48.39272 | -89.23740 | 1230 ft | 99 kts | 252° |
| 2026-04-25 04:00 | 48.39043 | -89.24721 | 1092 ft | 101 kts | 252° |
| 2026-04-25 04:00 | 48.38812 | -89.25706 | 1025 ft | 96 kts | 251° |
| 2026-04-25 04:01 | 48.38589 | -89.26651 | 1050 ft | 93 kts | 253° |
| 2026-04-25 04:01 | 48.38380 | -89.27536 | 1080 ft | 87 kts | 253° |
| 2026-04-25 04:01 | 48.38175 | -89.28381 | 982 ft | 88 kts | 253° |
| 2026-04-25 04:01 | 48.37980 | -89.29252 | 867 ft | 87 kts | 253° |
| 2026-04-25 04:02 | 48.37784 | -89.30074 | 756 ft | 80 kts | 254° |
| 2026-04-25 04:02 | 48.37610 | -89.30831 | 671 ft | 72 kts | 255° |
| 2026-04-25 04:02 | 48.37473 | -89.31457 | 648 ft | 52 kts | 251° |
| 2026-04-25 04:02 | 48.37407 | -89.31723 | 647 ft | 19 kts | 248° |
| 2026-04-25 04:03 | 48.37447 | -89.31863 | 648 ft | 12 kts | 344° |
| 2026-04-25 04:03 | 48.37485 | -89.31879 | 648 ft | 0 kts | 343° |
| 2026-04-25 04:07 | 48.37486 | -89.31880 | 648 ft | 2 kts | 341° |
| 2026-04-25 04:07 | 48.37541 | -89.31858 | 649 ft | 13 kts | 59° |
| 2026-04-25 04:07 | 48.37622 | -89.31815 | 649 ft | 7 kts | 340° |
| 2026-04-25 04:08 | 48.37667 | -89.31794 | 649 ft | 8 kts | 58° |
| 2026-04-25 04:08 | 48.37690 | -89.31776 | 649 ft | 0 kts | 326° |
| 2026-04-25 04:08 | 48.37684 | -89.31767 | 649 ft | 0 kts | 308° |
| 2026-04-25 04:08 | 48.37687 | -89.31782 | 649 ft | 0 kts | 265° |